Time;durP1;ratioP1;P1;durP2;ratioP2;P2;SDS_P1;SDS_P2;PMS_P1;PMS_P2;Temp;Humidity;BMP_temperature;BMP_pressure;BME280_temperature;BME280_humidity;BME280_pressure;Samples;Min_cycle;Max_cycle;Signal;HPM_P1;HPM_P2
2021/11/30 00:00:50;;;;;;;;;;;;;;;10.35;100.00;100865.88;5069419;28;19920;-53
2021/11/30 00:03:16;;;;;;;;;;;;;;;10.21;100.00;100862.28;5054102;28;19923;-50
2021/11/30 00:05:41;;;;;;;;;;;;;;;10.52;100.00;100860.28;5052597;28;19973;-48
2021/11/30 00:08:06;;;;;;;;;;;;;;;10.67;100.00;100847.66;5051958;28;19917;-49
2021/11/30 00:10:47;;;;;;;;;;;;;;;9.95;100.00;100857.53;5085997;28;20258;-52
2021/11/30 00:13:16;;;;;;;;;;;;;;;10.04;100.00;100848.38;5053756;28;19925;-51
2021/11/30 00:15:42;;;;;;;;;;;;;;;10.34;100.00;100834.84;5053153;28;19931;-51
2021/11/30 00:18:08;;;;;;;;;;;;;;;10.22;100.00;100833.72;5053954;28;19916;-53
2021/11/30 00:20:34;;;;;;;;;;;;;;;10.28;100.00;100828.44;5053440;28;20014;-53
2021/11/30 00:23:00;;;;;;;;;;;;;;;10.33;100.00;100822.47;5069410;28;20267;-55
2021/11/30 00:25:25;;;;;;;;;;;;;;;10.25;100.00;100822.63;5053905;28;19963;-54
2021/11/30 00:27:52;;;;;;;;;;;;;;;10.03;100.00;100804.81;5054229;28;19946;-53
2021/11/30 00:30:19;;;;;;;;;;;;;;;10.41;100.00;100805.50;5085400;28;19916;-55
2021/11/30 00:32:45;;;;;;;;;;;;;;;10.08;100.00;100804.19;5051846;28;19948;-51
2021/11/30 00:35:10;;;;;;;;;;;;;;;9.95;100.00;100801.44;5052219;28;19959;-55
2021/11/30 00:37:35;;;;;;;;;;;;;;;9.83;100.00;100793.91;5053397;28;19962;-53
2021/11/30 00:40:01;;;;;;;;;;;;;;;9.86;100.00;100800.75;5069160;28;19924;-54
2021/11/30 00:42:26;;;;;;;;;;;;;;;9.60;100.00;100784.25;5053642;28;19912;-55
2021/11/30 00:44:53;;;;;;;;;;;;;;;9.63;100.00;100792.91;5053151;28;19966;-53
2021/11/30 00:47:26;;;;;;;;;;;;;;;10.15;100.00;100778.38;5053894;28;19979;-51
2021/11/30 00:49:51;;;;;;;;;;;;;;;10.10;100.00;100774.63;5085563;28;19920;-51
2021/11/30 00:52:17;;;;;;;;;;;;;;;10.17;100.00;100776.34;5053280;28;19921;-52
2021/11/30 00:54:43;;;;;;;;;;;;;;;9.80;100.00;100767.59;5051913;28;19928;-54
2021/11/30 00:57:09;;;;;;;;;;;;;;;10.08;100.00;100766.78;5052787;28;20399;-55
2021/11/30 00:59:35;;;;;;;;;;;;;;;9.67;100.00;100762.13;5084626;28;19921;-54
2021/11/30 01:02:00;;;;;;;;;;;;;;;9.82;100.00;100744.19;5052953;28;19967;-54
2021/11/30 01:04:26;;;;;;;;;;;;;;;9.57;100.00;100763.28;5052758;28;20280;-55
2021/11/30 01:06:52;;;;;;;;;;;;;;;9.95;100.00;100753.34;5053112;28;19956;-56
2021/11/30 01:09:17;;;;;;;;;;;;;;;9.68;100.00;100758.44;5053497;28;19920;-55
2021/11/30 01:11:44;;;;;;;;;;;;;;;9.54;100.00;100770.84;5053422;28;20365;-55
2021/11/30 01:14:09;;;;;;;;;;;;;;;9.46;100.00;100755.78;5052744;28;20376;-56
2021/11/30 01:16:35;;;;;;;;;;;;;;;9.45;100.00;100770.13;5053042;28;19972;-55
2021/11/30 01:19:00;;;;;;;;;;;;;;;9.44;100.00;100757.81;5053761;28;19920;-51
2021/11/30 01:21:26;;;;;;;;;;;;;;;9.59;100.00;100766.59;5053290;28;19920;-56
2021/11/30 01:23:51;;;;;;;;;;;;;;;9.39;100.00;100773.56;5052849;28;19969;-57
2021/11/30 01:26:17;;;;;;;;;;;;;;;9.32;100.00;100758.31;5068286;28;19921;-53
2021/11/30 01:28:42;;;;;;;;;;;;;;;9.32;100.00;100750.31;5085777;28;19962;-53
2021/11/30 01:31:07;;;;;;;;;;;;;;;9.35;100.00;100754.44;5068466;28;19923;-54
2021/11/30 01:33:35;;;;;;;;;;;;;;;9.16;100.00;100762.03;5053383;28;19943;-54
2021/11/30 01:36:01;;;;;;;;;;;;;;;9.46;100.00;100751.25;5052789;28;19962;-56
2021/11/30 01:38:27;;;;;;;;;;;;;;;9.83;100.00;100745.84;5052826;28;20315;-55
2021/11/30 01:40:53;;;;;;;;;;;;;;;9.24;100.00;100734.44;5084839;28;19971;-53
2021/11/30 01:43:23;;;;;;;;;;;;;;;9.58;100.00;100711.53;5052978;28;19916;-50
2021/11/30 01:46:05;;;;;;;;;;;;;;;9.47;100.00;100704.88;5052597;28;20424;-55
2021/11/30 01:51:14;;;;;;;;;;;;;;;9.45;100.00;100698.91;5085452;28;20414;-56
2021/11/30 01:53:39;;;;;;;;;;;;;;;9.26;100.00;100687.03;5052467;28;19916;-50
2021/11/30 01:56:05;;;;;;;;;;;;;;;9.50;100.00;100690.31;5052267;28;19920;-53
2021/11/30 01:58:30;;;;;;;;;;;;;;;9.01;100.00;100681.22;5052574;28;19923;-51
2021/11/30 02:00:55;;;;;;;;;;;;;;;9.24;100.00;100669.53;5052624;28;19962;-54
2021/11/30 02:03:21;;;;;;;;;;;;;;;9.21;100.00;100680.59;5052279;28;20266;-52
2021/11/30 02:05:46;;;;;;;;;;;;;;;9.39;100.00;100648.13;5052646;28;19962;-52
2021/11/30 02:08:12;;;;;;;;;;;;;;;9.31;100.00;100638.41;5052455;28;20376;-52
2021/11/30 02:10:37;;;;;;;;;;;;;;;9.38;100.00;100633.97;5084521;28;20027;-52
2021/11/30 02:13:04;;;;;;;;;;;;;;;9.09;100.00;100642.94;5054718;28;19917;-50
2021/11/30 02:15:29;;;;;;;;;;;;;;;9.38;100.00;100641.13;5056215;28;20352;-50
2021/11/30 02:17:55;;;;;;;;;;;;;;;9.31;100.00;100641.91;5054360;28;19928;-50
2021/11/30 02:20:21;;;;;;;;;;;;;;;9.19;100.00;100654.09;5055933;28;19917;-51
2021/11/30 02:22:56;;;;;;;;;;;;;;;9.29;100.00;100632.44;5055939;28;19920;-51
2021/11/30 02:25:22;;;;;;;;;;;;;;;9.42;100.00;100629.88;5055879;28;19924;-51
2021/11/30 02:27:48;;;;;;;;;;;;;;;9.61;100.00;100620.38;5055647;28;19917;-54
2021/11/30 02:30:13;;;;;;;;;;;;;;;9.27;100.00;100619.28;5056159;28;20382;-56
2021/11/30 02:32:39;;;;;;;;;;;;;;;9.22;100.00;100611.00;5055571;28;20277;-52
2021/11/30 02:35:04;;;;;;;;;;;;;;;9.38;100.00;100619.78;5055957;28;19971;-53
2021/11/30 02:37:36;;;;;;;;;;;;;;;9.35;100.00;100609.50;5087867;28;20419;-56
2021/11/30 02:40:03;;;;;;;;;;;;;;;9.06;100.00;100600.63;5056113;28;19925;-54
2021/11/30 02:42:28;;;;;;;;;;;;;;;9.12;100.00;100594.53;5055287;28;19920;-54
2021/11/30 02:44:54;;;;;;;;;;;;;;;9.37;100.00;100580.75;5087531;28;20372;-54
2021/11/30 02:47:19;;;;;;;;;;;;;;;9.28;100.00;100590.75;5055732;28;19921;-51
2021/11/30 02:49:45;;;;;;;;;;;;;;;9.30;100.00;100576.22;5070490;28;20384;-52
2021/11/30 02:52:12;;;;;;;;;;;;;;;9.25;100.00;100561.78;5055108;28;19921;-50
2021/11/30 02:54:42;;;;;;;;;;;;;;;9.33;100.00;100567.81;5055417;28;20114;-50
2021/11/30 02:57:09;;;;;;;;;;;;;;;9.48;100.00;100566.91;5054919;28;20386;-53
2021/11/30 02:59:37;;;;;;;;;;;;;;;9.30;100.00;100554.84;5070946;28;19919;-51
2021/11/30 03:02:12;;;;;;;;;;;;;;;9.80;100.00;100575.31;5055154;28;19917;-51
2021/11/30 03:04:38;;;;;;;;;;;;;;;9.96;100.00;100566.13;5055567;28;20026;-52
2021/11/30 03:07:04;;;;;;;;;;;;;;;9.38;100.00;100577.06;5055183;28;19932;-52
2021/11/30 03:09:29;;;;;;;;;;;;;;;9.72;100.00;100551.44;5054897;28;19928;-50
2021/11/30 03:11:55;;;;;;;;;;;;;;;9.84;100.00;100549.84;5054942;28;20372;-48
2021/11/30 03:14:22;;;;;;;;;;;;;;;9.89;100.00;100558.09;5054641;28;19917;-51
2021/11/30 03:16:49;;;;;;;;;;;;;;;9.99;100.00;100531.00;5054906;28;20320;-50
2021/11/30 03:19:15;;;;;;;;;;;;;;;9.80;100.00;100567.28;5053464;28;19917;-49
2021/11/30 03:21:41;;;;;;;;;;;;;;;9.87;100.00;100544.09;5054547;28;19963;-48
2021/11/30 03:24:06;;;;;;;;;;;;;;;10.32;100.00;100532.16;5086228;28;19949;-49
2021/11/30 03:26:31;;;;;;;;;;;;;;;9.85;100.00;100537.31;5054382;28;19974;-51
2021/11/30 03:28:57;;;;;;;;;;;;;;;9.95;100.00;100531.63;5054815;28;19979;-50
2021/11/30 03:34:18;;;;;;;;;;;;;;;9.97;100.00;100526.91;5049734;28;19921;-53
2021/11/30 03:36:47;;;;;;;;;;;;;;;9.99;100.00;100532.88;5054380;28;19916;-53
2021/11/30 03:39:14;;;;;;;;;;;;;;;10.29;100.00;100525.38;5054499;28;19924;-52
2021/11/30 03:41:39;;;;;;;;;;;;;;;10.43;100.00;100514.72;5054368;28;19955;-51
2021/11/30 03:44:06;;;;;;;;;;;;;;;10.40;100.00;100501.75;5086660;28;19921;-49
2021/11/30 03:46:31;;;;;;;;;;;;;;;10.41;100.00;100498.06;5054379;28;19920;-50
2021/11/30 03:48:57;;;;;;;;;;;;;;;10.49;100.00;100494.38;5054900;28;20253;-49
2021/11/30 03:51:23;;;;;;;;;;;;;;;10.04;100.00;100514.38;5054285;28;19917;-51
2021/11/30 03:53:49;;;;;;;;;;;;;;;10.41;100.00;100482.03;5054662;28;19924;-52
2021/11/30 03:56:14;;;;;;;;;;;;;;;10.52;100.00;100494.81;5053940;28;19917;-52
2021/11/30 03:58:40;;;;;;;;;;;;;;;10.93;100.00;100474.25;5053875;28;20058;-50
2021/11/30 04:01:05;;;;;;;;;;;;;;;10.95;100.00;100472.19;5086339;28;20427;-55
2021/11/30 04:03:33;;;;;;;;;;;;;;;10.87;100.00;100467.06;5053977;28;20357;-53
2021/11/30 04:05:58;;;;;;;;;;;;;;;10.54;100.00;100467.84;5086471;28;19974;-50
2021/11/30 04:08:24;;;;;;;;;;;;;;;10.61;100.00;100464.16;5086086;28;19924;-51
2021/11/30 04:10:49;;;;;;;;;;;;;;;10.64;100.00;100462.94;5086076;28;19927;-49
2021/11/30 04:13:15;;;;;;;;;;;;;;;10.81;100.00;100465.19;5053886;28;20011;-50
2021/11/30 04:15:40;;;;;;;;;;;;;;;10.95;100.00;100456.13;5053519;28;19917;-49
2021/11/30 04:18:06;;;;;;;;;;;;;;;10.66;100.00;100460.06;5053509;28;20015;-51
2021/11/30 04:20:31;;;;;;;;;;;;;;;11.17;100.00;100458.59;5053985;28;19920;-53
2021/11/30 04:22:57;;;;;;;;;;;;;;;10.96;100.00;100460.47;5053665;28;19916;-51
2021/11/30 04:25:23;;;;;;;;;;;;;;;10.92;100.00;100461.06;5069250;28;20428;-53
2021/11/30 04:27:48;;;;;;;;;;;;;;;11.05;100.00;100459.19;5085671;28;19964;-47
2021/11/30 04:30:14;;;;;;;;;;;;;;;10.90;100.00;100445.25;5053340;28;19947;-49
2021/11/30 04:32:39;;;;;;;;;;;;;;;10.99;100.00;100443.19;5085319;28;20034;-51
2021/11/30 04:35:06;;;;;;;;;;;;;;;11.11;100.00;100452.22;5052431;28;19967;-54
2021/11/30 04:37:31;;;;;;;;;;;;;;;11.12;100.00;100440.47;5053278;28;19929;-50
2021/11/30 04:39:56;;;;;;;;;;;;;;;11.33;100.00;100436.72;5053009;28;19942;-49
2021/11/30 04:42:26;;;;;;;;;;;;;;;11.25;100.00;100444.16;5053065;28;20288;-55
2021/11/30 04:45:03;;;;;;;;;;;;;;;11.38;100.00;100445.97;5054114;28;19921;-56
2021/11/30 04:47:32;;;;;;;;;;;;;;;11.60;100.00;100454.53;5053092;28;19923;-51
2021/11/30 04:50:03;;;;;;;;;;;;;;;11.73;100.00;100434.91;5052923;28;19958;-49
2021/11/30 04:52:30;;;;;;;;;;;;;;;11.37;100.00;100433.63;5085393;28;20011;-52
2021/11/30 04:54:56;;;;;;;;;;;;;;;11.34;100.00;100410.75;5051609;28;19917;-52
2021/11/30 04:57:21;;;;;;;;;;;;;;;11.72;100.00;100411.84;5053367;28;20388;-50
2021/11/30 04:59:47;;;;;;;;;;;;;;;11.71;100.00;100410.22;5052860;28;20376;-53
2021/11/30 05:02:13;;;;;;;;;;;;;;;11.69;100.00;100414.97;5052827;28;20014;-52
2021/11/30 05:04:39;;;;;;;;;;;;;;;11.76;100.00;100405.03;5052797;28;20355;-54
2021/11/30 05:07:04;;;;;;;;;;;;;;;11.73;100.00;100424.19;5052943;28;20059;-53
2021/11/30 05:09:30;;;;;;;;;;;;;;;11.91;100.00;100397.53;5052766;28;20356;-48
2021/11/30 05:11:55;;;;;;;;;;;;;;;11.90;100.00;100387.84;5053406;28;19959;-49
2021/11/30 05:14:21;;;;;;;;;;;;;;;12.09;100.00;100393.34;5053200;28;19975;-53
2021/11/30 05:16:46;;;;;;;;;;;;;;;11.98;100.00;100392.13;5085591;28;19917;-53
2021/11/30 05:19:11;;;;;;;;;;;;;;;11.98;100.00;100391.31;5053475;28;20377;-53
2021/11/30 05:21:37;;;;;;;;;;;;;;;12.19;100.00;100401.72;5085556;28;20384;-54
2021/11/30 05:24:05;;;;;;;;;;;;;;;12.17;100.00;100400.31;5053481;28;20364;-51
2021/11/30 05:26:31;;;;;;;;;;;;;;;12.51;100.00;100402.72;5053970;28;19990;-50
2021/11/30 05:28:56;;;;;;;;;;;;;;;12.48;100.00;100402.13;5052327;28;19996;-51
2021/11/30 05:31:22;;;;;;;;;;;;;;;12.90;100.00;100408.75;5053096;28;20011;-49
2021/11/30 05:33:48;;;;;;;;;;;;;;;12.44;100.00;100406.25;5052675;28;19956;-51
2021/11/30 05:36:13;;;;;;;;;;;;;;;12.39;100.00;100400.75;5085242;28;20361;-49
2021/11/30 05:38:39;;;;;;;;;;;;;;;12.83;100.00;100410.69;5052585;28;19955;-52
2021/11/30 05:41:05;;;;;;;;;;;;;;;12.96;100.00;100407.06;5052381;28;20380;-52
2021/11/30 05:43:30;;;;;;;;;;;;;;;12.82;100.00;100406.38;5053157;28;19921;-49
2021/11/30 05:45:56;;;;;;;;;;;;;;;13.16;100.00;100401.50;5052748;28;19924;-49
2021/11/30 05:48:21;;;;;;;;;;;;;;;13.14;100.00;100403.56;5088996;28;20385;-48
2021/11/30 05:50:46;;;;;;;;;;;;;;;13.43;100.00;100406.59;5056314;28;19973;-52
2021/11/30 05:53:12;;;;;;;;;;;;;;;13.19;100.00;100409.91;5056109;28;19946;-51
2021/11/30 05:55:37;;;;;;;;;;;;;;;13.17;100.00;100414.69;5088621;28;19971;-49
2021/11/30 05:58:03;;;;;;;;;;;;;;;13.30;100.00;100420.97;5056119;28;19927;-54
2021/11/30 06:00:29;;;;;;;;;;;;;;;13.65;100.00;100414.19;5056492;28;20376;-54
2021/11/30 06:02:59;;;;;;;;;;;;;;;13.46;100.00;100427.63;5055852;28;19964;-50
2021/11/30 06:05:25;;;;;;;;;;;;;;;13.38;100.00;100420.66;5071585;28;20015;-51
2021/11/30 06:07:51;;;;;;;;;;;;;;;13.72;100.00;100417.59;5054603;28;19956;-52
2021/11/30 06:10:16;;;;;;;;;;;;;;;13.54;100.00;100413.88;5056192;28;19917;-49
2021/11/30 06:12:42;;;;;;;;;;;;;;;13.25;100.00;100416.25;5055940;28;19927;-50
2021/11/30 06:15:07;;;;;;;;;;;;;;;13.38;100.00;100414.44;5055884;28;20031;-51
2021/11/30 06:17:33;;;;;;;;;;;;;;;13.72;100.00;100414.91;5055686;28;19977;-54
2021/11/30 06:19:59;;;;;;;;;;;;;;;13.41;100.00;100414.03;5056029;28;19978;-51
2021/11/30 06:22:24;;;;;;;;;;;;;;;13.76;100.00;100424.16;5055801;28;19912;-51
2021/11/30 06:24:50;;;;;;;;;;;;;;;13.82;100.00;100409.81;5055991;28;19920;-48
2021/11/30 06:27:15;;;;;;;;;;;;;;;13.95;100.00;100406.09;5054645;28;19927;-50
2021/11/30 06:29:41;;;;;;;;;;;;;;;13.71;100.00;100415.97;5056394;28;19924;-53
2021/11/30 06:32:07;;;;;;;;;;;;;;;13.70;100.00;100403.56;5054858;28;19964;-50
2021/11/30 06:34:32;;;;;;;;;;;;;;;13.84;100.00;100412.28;5055965;28;19921;-51
2021/11/30 06:36:57;;;;;;;;;;;;;;;13.83;100.00;100405.25;5055843;28;19921;-50
2021/11/30 06:39:23;;;;;;;;;;;;;;;13.91;100.00;100411.16;5087492;28;19967;-48
2021/11/30 06:41:48;;;;;;;;;;;;;;;13.62;100.00;100404.69;5087864;28;19920;-52
2021/11/30 06:44:14;;;;;;;;;;;;;;;13.88;100.00;100414.28;5055183;28;20011;-54
2021/11/30 06:46:39;;;;;;;;;;;;;;;13.75;100.00;100403.72;5055545;28;19912;-52
2021/11/30 06:49:04;;;;;;;;;;;;;;;13.79;100.00;100401.41;5054160;28;19920;-51
2021/11/30 06:51:30;;;;;;;;;;;;;;;14.27;100.00;100394.28;5055036;28;20387;-55
2021/11/30 06:53:55;;;;;;;;;;;;;;;13.60;100.00;100404.09;5055406;28;19920;-53
2021/11/30 06:56:21;;;;;;;;;;;;;;;13.59;100.00;100400.59;5055003;28;19924;-53
2021/11/30 06:58:46;;;;;;;;;;;;;;;13.65;100.00;100400.75;5054256;28;19966;-52
2021/11/30 07:01:12;;;;;;;;;;;;;;;13.91;100.00;100400.38;5054040;28;19970;-48
2021/11/30 07:03:40;;;;;;;;;;;;;;;13.95;100.00;100403.41;5054777;28;19991;-50
2021/11/30 07:06:18;;;;;;;;;;;;;;;13.61;100.00;100413.81;5054865;28;19916;-53
2021/11/30 07:11:22;;;;;;;;;;;;;;;13.97;100.00;100408.59;5054318;28;19920;-52
2021/11/30 07:13:47;;;;;;;;;;;;;;;14.19;100.00;100414.28;5054698;28;19916;-50
2021/11/30 07:16:13;;;;;;;;;;;;;;;13.73;100.00;100430.81;5054344;28;19921;-53
2021/11/30 07:18:40;;;;;;;;;;;;;;;13.80;100.00;100428.03;5054661;28;19917;-53
2021/11/30 07:21:05;;;;;;;;;;;;;;;13.99;100.00;100425.31;5054383;28;19931;-50
2021/11/30 07:23:32;;;;;;;;;;;;;;;13.83;100.00;100438.31;5054690;28;19916;-47
2021/11/30 07:25:58;;;;;;;;;;;;;;;14.33;100.00;100431.84;5054304;28;19917;-48
2021/11/30 07:28:30;;;;;;;;;;;;;;;14.31;100.00;100438.50;5053383;28;19916;-51
2021/11/30 07:31:00;;;;;;;;;;;;;;;14.12;100.00;100435.03;5053069;28;20383;-51
2021/11/30 07:33:26;;;;;;;;;;;;;;;14.29;100.00;100436.03;5054423;28;20310;-51
2021/11/30 07:35:51;;;;;;;;;;;;;;;14.21;100.00;100439.06;5054030;28;19921;-48
2021/11/30 07:38:17;;;;;;;;;;;;;;;13.99;100.00;100444.97;5053984;28;19917;-50
2021/11/30 07:40:43;;;;;;;;;;;;;;;13.99;100.00;100442.28;5053694;28;19921;-49
2021/11/30 07:43:08;;;;;;;;;;;;;;;14.22;100.00;100446.09;5052761;28;20310;-54
2021/11/30 07:45:33;;;;;;;;;;;;;;;14.20;100.00;100445.50;5054445;28;20427;-55
2021/11/30 07:47:59;;;;;;;;;;;;;;;14.10;100.00;100437.97;5071189;28;20011;-50
2021/11/30 07:50:25;;;;;;;;;;;;;;;14.30;100.00;100437.69;5054298;28;20316;-52
2021/11/30 07:52:50;;;;;;;;;;;;;;;14.27;100.00;100443.53;5053682;28;20311;-54
2021/11/30 07:55:16;;;;;;;;;;;;;;;14.43;100.00;100446.59;5054038;28;20389;-52
2021/11/30 07:57:42;;;;;;;;;;;;;;;14.90;100.00;100453.94;5052659;28;19916;-51
2021/11/30 08:00:09;;;;;;;;;;;;;;;14.71;100.00;100443.28;5052852;28;19966;-51
2021/11/30 08:02:38;;;;;;;;;;;;;;;14.79;100.00;100444.00;5054021;28;20019;-52
2021/11/30 08:05:03;;;;;;;;;;;;;;;14.26;100.00;100454.50;5054359;28;19959;-49
2021/11/30 08:07:29;;;;;;;;;;;;;;;14.42;100.00;100451.16;5053963;28;19921;-48
2021/11/30 08:09:54;;;;;;;;;;;;;;;14.93;100.00;100448.06;5054406;28;20367;-49
2021/11/30 08:12:20;;;;;;;;;;;;;;;14.55;100.00;100450.13;5054139;28;19920;-49
2021/11/30 08:14:45;;;;;;;;;;;;;;;14.64;100.00;100456.00;5053560;28;20395;-50
2021/11/30 08:17:14;;;;;;;;;;;;;;;14.54;100.00;100450.38;5052099;28;19960;-48
2021/11/30 08:19:40;;;;;;;;;;;;;;;14.62;100.00;100450.81;5053835;28;20000;-49
2021/11/30 08:22:06;;;;;;;;;;;;;;;14.62;100.00;100444.66;5054120;28;19917;-51
2021/11/30 08:24:31;;;;;;;;;;;;;;;14.23;100.00;100444.19;5053770;28;19931;-49
2021/11/30 08:26:56;;;;;;;;;;;;;;;14.76;100.00;100448.78;5054010;28;19931;-49
2021/11/30 08:29:22;;;;;;;;;;;;;;;15.04;100.00;100443.75;5052377;28;19921;-49
2021/11/30 08:31:47;;;;;;;;;;;;;;;14.63;100.00;100447.09;5068880;28;19921;-52
2021/11/30 08:34:13;;;;;;;;;;;;;;;14.29;100.00;100446.81;5052271;28;19927;-51
2021/11/30 08:36:38;;;;;;;;;;;;;;;14.72;100.00;100438.72;5053773;28;19970;-49
2021/11/30 08:39:04;;;;;;;;;;;;;;;14.87;100.00;100468.66;5085961;28;19956;-49
2021/11/30 08:41:29;;;;;;;;;;;;;;;14.49;100.00;100440.28;5052644;28;19921;-53
2021/11/30 08:43:55;;;;;;;;;;;;;;;14.46;100.00;100452.31;5053350;28;19921;-50
2021/11/30 08:46:20;;;;;;;;;;;;;;;15.18;100.00;100447.84;5085478;28;20294;-52
2021/11/30 08:48:46;;;;;;;;;;;;;;;14.72;100.00;100444.09;5052901;28;20372;-56
2021/11/30 08:51:11;;;;;;;;;;;;;;;14.73;100.00;100445.75;5051861;28;19921;-52
2021/11/30 08:53:37;;;;;;;;;;;;;;;14.53;100.00;100441.47;5052221;28;19917;-52
2021/11/30 08:56:03;;;;;;;;;;;;;;;15.04;100.00;100452.66;5085110;28;20387;-53
2021/11/30 08:58:28;;;;;;;;;;;;;;;14.94;100.00;100438.94;5052865;28;19916;-51
2021/11/30 09:00:54;;;;;;;;;;;;;;;14.54;100.00;100442.31;5052825;28;19927;-53
2021/11/30 09:03:20;;;;;;;;;;;;;;;14.68;100.00;100438.31;5052861;28;19966;-54
2021/11/30 09:05:46;;;;;;;;;;;;;;;14.55;100.00;100433.97;5052844;28;19916;-53
2021/11/30 09:08:11;;;;;;;;;;;;;;;14.88;100.00;100437.19;5084976;28;20349;-51
2021/11/30 09:10:37;;;;;;;;;;;;;;;14.75;100.00;100444.44;5085543;28;19950;-52
2021/11/30 09:13:03;;;;;;;;;;;;;;;14.95;100.00;100442.47;5053726;28;19924;-51
2021/11/30 09:15:28;;;;;;;;;;;;;;;15.10;100.00;100453.56;5085852;28;19966;-53
2021/11/30 09:17:55;;;;;;;;;;;;;;;15.35;100.00;100447.13;5052643;28;20303;-51
2021/11/30 09:20:20;;;;;;;;;;;;;;;15.26;100.00;100443.97;5085224;28;19956;-50
2021/11/30 09:22:46;;;;;;;;;;;;;;;14.84;100.00;100446.81;5056578;28;19975;-51
2021/11/30 09:25:12;;;;;;;;;;;;;;;15.02;100.00;100449.38;5056217;28;20378;-48
2021/11/30 09:27:38;;;;;;;;;;;;;;;14.77;100.00;100457.66;5056982;28;20380;-54
2021/11/30 09:30:05;;;;;;;;;;;;;;;15.10;100.00;100464.34;5056884;28;19916;-48
2021/11/30 09:32:31;;;;;;;;;;;;;;;14.68;100.00;100462.53;5056893;28;19913;-51
2021/11/30 09:34:57;;;;;;;;;;;;;;;14.82;100.00;100467.75;5089450;28;19921;-51
2021/11/30 09:37:23;;;;;;;;;;;;;;;14.63;100.00;100465.13;5055605;28;19943;-49
2021/11/30 09:39:48;;;;;;;;;;;;;;;14.86;100.00;100468.91;5089151;28;20328;-49
2021/11/30 09:42:15;;;;;;;;;;;;;;;14.85;100.00;100476.16;5055934;28;19921;-47
2021/11/30 09:44:41;;;;;;;;;;;;;;;14.99;100.00;100475.94;5056770;28;20344;-50
2021/11/30 09:47:07;;;;;;;;;;;;;;;15.02;100.00;100481.69;5056426;28;19932;-51
2021/11/30 09:49:32;;;;;;;;;;;;;;;14.78;100.00;100470.06;5056678;28;19921;-51
2021/11/30 09:51:58;;;;;;;;;;;;;;;14.73;100.00;100484.22;5056121;28;19920;-51
2021/11/30 09:54:23;;;;;;;;;;;;;;;14.75;100.00;100484.81;5056372;28;20437;-51
2021/11/30 09:56:49;;;;;;;;;;;;;;;15.05;100.00;100478.53;5072628;28;20425;-50
2021/11/30 09:59:14;;;;;;;;;;;;;;;15.15;100.00;100490.59;5060188;28;19948;-50
2021/11/30 10:01:39;;;;;;;;;;;;;;;15.05;100.00;100481.22;5059849;28;19921;-54
2021/11/30 10:04:05;;;;;;;;;;;;;;;14.98;100.00;100485.88;5057729;28;20234;-49
2021/11/30 10:06:31;;;;;;;;;;;;;;;14.96;100.00;100471.84;5057201;28;19928;-50
2021/11/30 10:08:56;;;;;;;;;;;;;;;14.95;100.00;100485.56;5057657;28;19931;-48
2021/11/30 10:11:31;;;;;;;;;;;;;;;15.00;100.00;100478.41;5058424;28;19996;-48
2021/11/30 10:14:06;;;;;;;;;;;;;;;15.20;100.00;100482.59;5089233;28;19917;-50
2021/11/30 10:16:32;;;;;;;;;;;;;;;14.94;100.00;100471.25;5056619;28;19917;-52
2021/11/30 10:18:59;;;;;;;;;;;;;;;15.48;100.00;100481.88;5054721;28;20288;-54
2021/11/30 10:21:25;;;;;;;;;;;;;;;15.59;100.00;100472.13;5054463;28;19958;-49
2021/11/30 10:23:50;;;;;;;;;;;;;;;15.74;100.00;100476.22;5088541;28;20003;-51
2021/11/30 10:26:26;;;;;;;;;;;;;;;15.31;100.00;100475.56;5055647;28;19916;-50
2021/11/30 10:28:55;;;;;;;;;;;;;;;15.51;100.00;100477.91;5056519;28;19944;-52
2021/11/30 10:31:25;;;;;;;;;;;;;;;15.52;100.00;100470.63;5055586;28;19920;-49
2021/11/30 10:33:51;;;;;;;;;;;;;;;15.49;100.00;100480.03;5087705;28;20027;-51
2021/11/30 10:36:17;;;;;;;;;;;;;;;15.27;100.00;100477.09;5087184;28;20019;-51
2021/11/30 10:38:42;;;;;;;;;;;;;;;15.89;100.00;100481.91;5055248;28;20020;-51
2021/11/30 10:41:11;;;;;;;;;;;;;;;15.17;100.00;100483.09;5087569;28;19967;-48
2021/11/30 10:43:41;;;;;;;;;;;;;;;15.24;100.00;100473.03;5055350;28;20011;-53
2021/11/30 10:46:08;;;;;;;;;;;;;;;15.48;100.00;100489.97;5055730;28;19966;-49
2021/11/30 10:48:34;;;;;;;;;;;;;;;15.52;100.00;100489.50;5055695;28;19942;-55
2021/11/30 10:50:59;;;;;;;;;;;;;;;15.69;100.00;100489.59;5055300;28;20363;-48
2021/11/30 10:53:32;;;;;;;;;;;;;;;15.55;100.00;100481.75;5055225;28;19920;-53
2021/11/30 10:56:02;;;;;;;;;;;;;;;15.70;100.00;100485.84;5054315;28;19920;-53
2021/11/30 10:58:28;;;;;;;;;;;;;;;15.43;100.00;100484.47;5055533;28;20360;-55
2021/11/30 11:00:56;;;;;;;;;;;;;;;15.38;100.00;100489.75;5055380;28;20276;-53
2021/11/30 11:03:23;;;;;;;;;;;;;;;15.25;100.00;100479.22;5056094;28;19923;-52
2021/11/30 11:08:44;;;;;;;;;;;;;;;15.51;100.00;100488.69;5087410;28;19921;-50
2021/11/30 11:11:10;;;;;;;;;;;;;;;15.82;100.00;100489.31;5054636;28;19923;-51
2021/11/30 11:13:38;;;;;;;;;;;;;;;15.66;100.00;100481.97;5054690;28;19920;-53
2021/11/30 11:16:08;;;;;;;;;;;;;;;15.46;100.00;100488.59;5055079;28;20356;-53
2021/11/30 11:18:34;;;;;;;;;;;;;;;15.56;100.00;100483.41;5053995;28;19920;-50
2021/11/30 11:21:15;;;;;;;;;;;;;;;15.63;100.00;100477.88;5054952;28;19925;-49
2021/11/30 11:23:42;;;;;;;;;;;;;;;15.99;100.00;100486.69;5087239;28;19916;-48
2021/11/30 11:26:15;;;;;;;;;;;;;;;15.58;100.00;100485.88;5053147;28;20004;-49
2021/11/30 11:28:40;;;;;;;;;;;;;;;15.60;100.00;100492.63;5054569;28;20011;-48
2021/11/30 11:31:06;;;;;;;;;;;;;;;15.70;100.00;100480.44;5054639;28;19970;-48
2021/11/30 11:33:31;;;;;;;;;;;;;;;15.54;100.00;100488.22;5054327;28;19917;-49
2021/11/30 11:35:57;;;;;;;;;;;;;;;15.86;100.00;100468.88;5054264;28;19917;-49
2021/11/30 11:38:22;;;;;;;;;;;;;;;15.49;100.00;100469.25;5054928;28;20345;-51
2021/11/30 11:40:48;;;;;;;;;;;;;;;15.55;100.00;100481.75;5054462;28;19921;-54
2021/11/30 11:43:14;;;;;;;;;;;;;;;15.22;100.00;100490.47;5054689;28;20311;-52
2021/11/30 11:45:40;;;;;;;;;;;;;;;15.40;100.00;100476.03;5052957;28;19950;-55
2021/11/30 11:48:06;;;;;;;;;;;;;;;15.76;100.00;100476.78;5054567;28;19923;-52
2021/11/30 11:50:48;;;;;;;;;;;;;;;15.86;100.00;100479.69;5054548;28;20010;-52
2021/11/30 11:53:24;;;;;;;;;;;;;;;15.74;100.00;100476.22;5054785;28;20000;-52
2021/11/30 11:56:25;;;;;;;;;;;;;;;15.45;100.00;100474.28;5054218;28;19916;-53
2021/11/30 11:59:09;;;;;;;;;;;;;;;15.16;100.00;100470.66;5031846;28;20032;-53
2021/11/30 12:01:36;;;;;;;;;;;;;;;15.50;100.00;100468.19;5052861;28;19940;-48
2021/11/30 12:04:03;;;;;;;;;;;;;;;15.57;100.00;100465.34;5053820;28;19924;-48
2021/11/30 12:06:46;;;;;;;;;;;;;;;15.22;100.00;100472.41;5054054;28;19917;-53
2021/11/30 12:09:15;;;;;;;;;;;;;;;15.14;100.00;100472.78;5052424;28;19954;-52
2021/11/30 12:11:40;;;;;;;;;;;;;;;16.08;100.00;100476.34;5053661;28;19964;-52
2021/11/30 12:14:10;;;;;;;;;;;;;;;15.52;100.00;100465.22;5053756;28;19954;-52
2021/11/30 12:16:54;;;;;;;;;;;;;;;15.80;100.00;100467.16;5053310;28;19920;-51
2021/11/30 12:19:28;;;;;;;;;;;;;;;15.38;100.00;100465.50;5054468;28;19916;-52
2021/11/30 12:21:54;;;;;;;;;;;;;;;15.67;100.00;100456.63;5054306;28;19927;-51
2021/11/30 12:24:51;;;;;;;;;;;;;;;15.73;100.00;100463.78;5085904;28;20383;-53
2021/11/30 12:27:16;;;;;;;;;;;;;;;15.59;100.00;100461.34;5048981;28;19917;-51
2021/11/30 12:29:42;;;;;;;;;;;;;;;15.80;100.00;100464.47;5053277;28;20397;-52
2021/11/30 12:32:13;;;;;;;;;;;;;;;15.88;100.00;100460.56;5053417;28;19924;-53
2021/11/30 12:34:40;;;;;;;;;;;;;;;16.02;100.00;100451.16;5053822;28;19917;-50
2021/11/30 12:37:15;;;;;;;;;;;;;;;15.86;100.00;100451.91;5085517;28;20321;-51